createdAt,value
2023-10-10T00:02:19.450Z,68.06
2023-10-10T00:04:50.701Z,70.18
2023-10-10T00:07:18.871Z,69.51
2023-10-10T00:09:46.651Z,69.74
2023-10-10T00:12:40.253Z,69.07
2023-10-10T00:15:12.437Z,69.21
2023-10-10T00:17:39.299Z,70.35
2023-10-10T00:20:25.811Z,69.40
2023-10-10T00:22:59.782Z,69.90
2023-10-10T00:25:32.146Z,70.01
2023-10-10T00:28:10.779Z,69.98
2023-10-10T00:30:44.391Z,70.18
2023-10-10T00:33:12.173Z,69.97
2023-10-10T00:35:39.660Z,70.33
2023-10-10T00:38:06.850Z,70.29
2023-10-10T00:40:39.594Z,70.09
2023-10-10T00:43:17.592Z,70.58
2023-10-10T00:45:52.998Z,68.80
2023-10-10T00:48:23.778Z,69.33
2023-10-10T00:51:06.725Z,70.84
2023-10-10T00:53:37.720Z,69.40
2023-10-10T00:56:07.419Z,67.86
2023-10-10T00:58:38.287Z,68.48
2023-10-10T01:01:11.093Z,67.60
2023-10-10T01:03:41.520Z,67.19
2023-10-10T01:06:25.646Z,67.67
2023-10-10T01:08:56.638Z,67.47
2023-10-10T01:11:24.097Z,69.16
2023-10-10T01:13:53.553Z,68.21
2023-10-10T01:16:26.667Z,67.59
2023-10-10T01:18:58.234Z,67.44
2023-10-10T01:21:49.552Z,67.51
2023-10-10T01:24:18.881Z,69.18
2023-10-10T01:26:46.111Z,69.95
2023-10-10T01:29:25.369Z,67.73
2023-10-10T01:31:56.049Z,68.33
2023-10-10T01:34:32.390Z,69.04
2023-10-10T01:37:15.005Z,68.06
2023-10-10T01:39:55.836Z,69.33
2023-10-10T01:42:32.814Z,68.76
2023-10-10T01:45:08.973Z,67.55
2023-10-10T01:47:36.403Z,67.55
2023-10-10T01:50:12.084Z,66.78
2023-10-10T01:52:39.286Z,66.57
2023-10-10T01:55:07.047Z,66.73
2023-10-10T01:57:33.439Z,69.85
2023-10-10T02:00:07.057Z,68.16
2023-10-10T02:02:36.118Z,67.12
2023-10-10T02:05:05.076Z,67.30
2023-10-10T02:07:34.600Z,66.51
2023-10-10T02:10:13.153Z,67.29
2023-10-10T02:12:46.216Z,68.51
2023-10-10T02:15:15.620Z,68.06
2023-10-10T02:17:52.107Z,67.73
2023-10-10T02:20:28.331Z,66.81
2023-10-10T02:22:55.450Z,68.11
2023-10-10T02:25:27.511Z,69.58
2023-10-10T02:28:11.499Z,69.53
2023-10-10T02:30:39.011Z,68.89
2023-10-10T02:33:26.076Z,68.54
2023-10-10T02:35:57.265Z,67.87
2023-10-10T02:38:35.334Z,68.05
2023-10-10T02:41:21.596Z,67.96
2023-10-10T02:44:01.908Z,67.12
2023-10-10T02:46:37.421Z,67.14
2023-10-10T02:49:13.700Z,69.26
2023-10-10T02:51:44.797Z,68.59
2023-10-10T02:54:33.220Z,67.73
2023-10-10T02:57:20.707Z,68.22
2023-10-10T02:59:51.794Z,67.25
2023-10-10T03:02:20.551Z,68.51
2023-10-10T03:05:07.571Z,68.95
2023-10-10T03:07:36.139Z,68.87
2023-10-10T03:10:23.636Z,69.44
2023-10-10T03:12:52.886Z,67.30
2023-10-10T03:15:21.076Z,68.09
2023-10-10T03:17:51.576Z,68.02
2023-10-10T03:20:27.136Z,68.41
2023-10-10T03:23:25.115Z,70.01
2023-10-10T03:25:51.554Z,70.35
2023-10-10T03:28:30.230Z,69.28
2023-10-10T03:31:16.307Z,71.13
2023-10-10T03:33:44.019Z,69.66
2023-10-10T03:36:18.702Z,69.38
2023-10-10T03:38:50.928Z,69.88
2023-10-10T03:41:23.849Z,69.73
2023-10-10T03:44:13.143Z,70.02
2023-10-10T03:46:48.827Z,71.17
2023-10-10T03:49:34.087Z,70.46
2023-10-10T03:52:19.431Z,70.39
2023-10-10T03:55:04.835Z,68.96
2023-10-10T03:57:49.588Z,69.49
2023-10-10T04:00:35.032Z,69.71
2023-10-10T04:03:19.901Z,68.96
2023-10-10T04:06:04.992Z,68.75
2023-10-10T04:08:49.951Z,69.91
2023-10-10T04:11:34.851Z,71.05
2023-10-10T04:14:20.408Z,71.41
2023-10-10T04:17:05.219Z,70.61
2023-10-10T04:19:50.724Z,71.31
2023-10-10T04:22:35.386Z,72.13
2023-10-10T04:25:20.757Z,72.32
2023-10-10T04:28:05.507Z,71.87
2023-10-10T04:30:50.264Z,72.63
2023-10-10T04:33:35.649Z,71.99
2023-10-10T04:36:20.371Z,70.19
2023-10-10T04:39:05.135Z,71.72
2023-10-10T04:41:49.906Z,71.41
2023-10-10T04:44:34.944Z,72.61
2023-10-10T04:47:19.829Z,72.36
2023-10-10T04:50:04.794Z,72.13
2023-10-10T04:52:53.097Z,71.05
2023-10-10T04:55:38.330Z,71.11
2023-10-10T04:58:23.652Z,71.71
2023-10-10T05:01:08.667Z,72.26
2023-10-10T05:03:53.831Z,70.76
2023-10-10T05:06:38.634Z,71.32
2023-10-10T05:09:23.436Z,71.97
2023-10-10T05:12:08.221Z,71.44
2023-10-10T05:14:52.987Z,71.00
2023-10-10T05:17:37.851Z,72.71
2023-10-10T05:23:10.648Z,71.04
2023-10-10T05:25:38.544Z,70.75
2023-10-10T05:28:05.381Z,70.56
2023-10-10T05:30:40.878Z,70.63
2023-10-10T05:33:07.964Z,70.25
2023-10-10T05:35:39.221Z,70.13
2023-10-10T05:38:08.510Z,70.89
2023-10-10T05:40:35.479Z,71.33
2023-10-10T05:43:04.070Z,71.57
2023-10-10T05:45:31.049Z,70.98
2023-10-10T05:47:57.534Z,72.36
2023-10-10T05:50:24.027Z,71.35
2023-10-10T05:52:50.466Z,70.63
2023-10-10T05:55:17.031Z,71.33
2023-10-10T05:57:43.479Z,70.07
2023-10-10T06:00:12.142Z,70.56
2023-10-10T06:02:39.154Z,71.43
2023-10-10T06:05:06.716Z,72.67
2023-10-10T06:07:34.300Z,72.52
2023-10-10T06:10:00.729Z,73.87
2023-10-10T06:12:27.085Z,73.11
2023-10-10T06:14:55.663Z,72.62
2023-10-10T06:17:25.278Z,72.51
2023-10-10T06:19:51.764Z,73.21
2023-10-10T06:22:18.176Z,72.79
2023-10-10T06:24:45.017Z,72.42
2023-10-10T06:27:14.318Z,71.78
2023-10-10T06:29:41.992Z,71.50
2023-10-10T06:32:16.806Z,72.68
2023-10-10T06:34:50.718Z,70.28
2023-10-10T06:37:17.330Z,69.86
2023-10-10T06:39:55.803Z,70.90
2023-10-10T06:42:28.465Z,69.20
2023-10-10T06:44:55.474Z,69.85
2023-10-10T06:47:22.571Z,71.77
2023-10-10T06:50:01.036Z,71.13
2023-10-10T06:52:29.556Z,71.33
2023-10-10T06:54:56.602Z,70.36
2023-10-10T06:57:46.283Z,69.58
2023-10-10T07:00:20.871Z,71.46
2023-10-10T07:02:54.391Z,71.18
2023-10-10T07:05:21.475Z,71.03
2023-10-10T07:07:59.267Z,69.70
2023-10-10T07:10:36.202Z,70.27
2023-10-10T07:13:04.440Z,71.27
2023-10-10T07:15:35.905Z,69.89
2023-10-10T07:18:23.460Z,70.21
2023-10-10T07:21:07.788Z,70.56
2023-10-10T07:23:39.615Z,69.79
2023-10-10T07:26:21.654Z,70.93
2023-10-10T07:28:49.564Z,70.18
2023-10-10T07:31:20.061Z,68.90
2023-10-10T07:33:57.253Z,70.10
2023-10-10T07:36:26.050Z,68.62
2023-10-10T07:39:16.467Z,67.71
2023-10-10T07:41:47.830Z,66.74
2023-10-10T07:44:23.620Z,65.20
2023-10-10T07:47:09.498Z,65.51
2023-10-10T07:49:37.961Z,65.53
2023-10-10T07:52:04.448Z,64.17
2023-10-10T07:54:40.367Z,64.44
2023-10-10T07:57:18.658Z,64.30
2023-10-10T07:59:45.971Z,65.38
2023-10-10T08:02:25.870Z,64.02
2023-10-10T08:04:54.496Z,62.72
2023-10-10T08:07:21.482Z,64.24
2023-10-10T08:09:49.403Z,63.07
2023-10-10T08:12:16.938Z,61.19
2023-10-10T08:14:44.099Z,62.90
2023-10-10T08:17:19.754Z,62.22
2023-10-10T08:19:52.687Z,62.63
2023-10-10T08:22:20.927Z,64.04
2023-10-10T08:24:47.309Z,64.07
2023-10-10T08:27:13.780Z,62.90
2023-10-10T08:29:41.464Z,61.21
2023-10-10T08:32:09.866Z,61.85
2023-10-10T08:34:40.052Z,62.62
2023-10-10T08:37:06.506Z,61.39
2023-10-10T08:39:40.280Z,62.06
2023-10-10T08:42:11.824Z,60.51
2023-10-10T08:44:40.226Z,59.41
2023-10-10T08:47:33.177Z,60.05
2023-10-10T08:50:02.013Z,60.01
2023-10-10T08:52:31.226Z,61.05
2023-10-10T08:54:59.499Z,60.20
2023-10-10T08:57:28.417Z,60.56
2023-10-10T08:59:55.455Z,59.79
2023-10-10T09:02:21.877Z,59.69
2023-10-10T09:04:51.614Z,59.79
2023-10-10T09:07:22.115Z,57.72
2023-10-10T09:10:05.472Z,57.51
2023-10-10T09:12:54.019Z,57.52
2023-10-10T09:15:20.972Z,56.39
2023-10-10T09:17:48.266Z,58.59
2023-10-10T09:20:31.295Z,57.19
2023-10-10T09:23:05.659Z,57.37
2023-10-10T09:25:58.734Z,56.88
2023-10-10T09:28:31.975Z,56.91
2023-10-10T09:31:04.270Z,56.75
2023-10-10T09:33:34.879Z,56.59
2023-10-10T09:36:09.620Z,54.81
2023-10-10T09:38:49.715Z,54.44
2023-10-10T09:41:37.415Z,53.67
2023-10-10T09:44:22.375Z,53.23
2023-10-10T09:47:06.908Z,53.11
2023-10-10T09:49:58.915Z,52.63
2023-10-10T09:52:44.383Z,53.90
2023-10-10T09:55:13.407Z,52.45
2023-10-10T09:58:01.896Z,52.13
2023-10-10T10:00:46.191Z,53.75
2023-10-10T10:03:33.274Z,52.23
2023-10-10T10:06:22.624Z,52.16
2023-10-10T10:09:32.477Z,52.88
2023-10-10T10:12:32.642Z,52.40
2023-10-10T10:15:16.620Z,51.92
2023-10-10T10:17:55.823Z,53.38
2023-10-10T10:20:46.232Z,51.54
2023-10-10T10:23:28.633Z,51.53
2023-10-10T10:26:05.478Z,52.24
2023-10-10T10:28:38.499Z,52.36
2023-10-10T10:31:17.524Z,52.23
2023-10-10T10:34:07.595Z,51.12
2023-10-10T10:36:44.876Z,51.91
2023-10-10T10:39:21.976Z,50.51
2023-10-10T10:41:57.307Z,50.44
2023-10-10T10:44:57.757Z,50.06
2023-10-10T10:47:36.658Z,50.52
2023-10-10T10:50:18.550Z,49.76
2023-10-10T10:52:58.404Z,49.92
2023-10-10T10:55:29.292Z,48.98
2023-10-10T10:58:21.917Z,48.30
2023-10-10T11:00:57.613Z,46.35
2023-10-10T11:03:37.745Z,48.44
2023-10-10T11:06:09.202Z,48.45
2023-10-10T11:08:57.566Z,47.21
2023-10-10T11:11:28.503Z,48.17
2023-10-10T11:14:00.636Z,47.79
2023-10-10T11:16:40.525Z,47.29
2023-10-10T11:19:23.287Z,47.91
2023-10-10T11:22:21.198Z,46.84
2023-10-10T11:24:49.671Z,47.53
2023-10-10T11:27:16.246Z,46.29
2023-10-10T11:29:49.117Z,44.08
2023-10-10T11:32:24.909Z,44.71
2023-10-10T11:34:57.932Z,46.29
2023-10-10T11:37:32.321Z,45.10
2023-10-10T11:40:20.879Z,44.31
2023-10-10T11:42:49.912Z,42.88
2023-10-10T11:45:20.841Z,43.61
2023-10-10T11:47:48.661Z,43.77
2023-10-10T11:50:18.944Z,42.77
2023-10-10T11:52:57.175Z,41.61
2023-10-10T11:55:24.984Z,41.04
2023-10-10T11:57:52.825Z,41.79
2023-10-10T12:02:51.375Z,40.78
2023-10-10T12:05:38.097Z,40.00
2023-10-10T12:08:08.754Z,40.48
2023-10-10T12:10:48.475Z,40.47
2023-10-10T12:13:30.922Z,41.18
2023-10-10T12:16:13.552Z,40.78
2023-10-10T12:18:46.337Z,39.87
2023-10-10T12:21:16.090Z,40.08
2023-10-10T12:23:42.817Z,41.33
2023-10-10T12:26:11.928Z,40.41
2023-10-10T12:28:38.364Z,38.92
2023-10-10T12:31:05.618Z,38.68
2023-10-10T12:33:32.995Z,38.78
2023-10-10T12:35:59.735Z,38.88
2023-10-10T12:38:26.225Z,38.88
2023-10-10T12:40:53.881Z,40.04
2023-10-10T12:43:21.801Z,37.80
2023-10-10T12:45:48.629Z,38.18
2023-10-10T12:48:15.894Z,37.75
2023-10-10T12:50:42.894Z,37.31
2023-10-10T12:53:09.994Z,36.93
2023-10-10T12:55:38.181Z,37.56
2023-10-10T12:58:16.164Z,36.28
2023-10-10T13:00:51.343Z,36.26
2023-10-10T13:03:24.461Z,37.18
2023-10-10T13:05:59.613Z,37.18
2023-10-10T13:08:50.238Z,37.08
2023-10-10T13:11:20.266Z,36.73
2023-10-10T13:13:52.818Z,38.41
2023-10-10T13:16:23.797Z,39.11
2023-10-10T13:18:54.910Z,38.64
2023-10-10T13:21:21.555Z,39.07
2023-10-10T13:23:52.750Z,39.20
2023-10-10T13:26:23.359Z,39.76
2023-10-10T13:28:50.381Z,39.85
2023-10-10T13:31:18.526Z,40.08
2023-10-10T13:33:45.725Z,39.12
2023-10-10T13:36:16.332Z,39.68
2023-10-10T13:38:51.136Z,40.54
2023-10-10T13:41:23.439Z,40.62
2023-10-10T13:43:52.090Z,40.71
2023-10-10T13:46:20.868Z,41.41
2023-10-10T13:48:48.478Z,41.30
2023-10-10T13:51:16.426Z,40.94
2023-10-10T13:53:45.903Z,41.09
2023-10-10T13:56:14.669Z,40.70
2023-10-10T13:58:48.278Z,40.93
2023-10-10T14:01:17.684Z,41.54
2023-10-10T14:03:50.322Z,41.39
2023-10-10T14:06:18.068Z,40.62
2023-10-10T14:08:50.843Z,41.08
2023-10-10T14:11:24.180Z,41.42
2023-10-10T14:13:55.242Z,40.65
2023-10-10T14:16:23.516Z,41.31
2023-10-10T14:18:53.420Z,41.04
2023-10-10T14:21:28.160Z,40.98
2023-10-10T14:24:14.344Z,40.61
2023-10-10T14:26:44.572Z,40.02
2023-10-10T14:29:15.655Z,40.18
2023-10-10T14:31:46.737Z,41.13
2023-10-10T14:34:21.474Z,40.15
2023-10-10T14:36:52.375Z,41.32
2023-10-10T14:39:37.693Z,40.77
2023-10-10T14:42:04.530Z,40.30
2023-10-10T14:44:32.553Z,40.51
2023-10-10T14:46:59.244Z,41.07
2023-10-10T14:49:31.992Z,41.10
2023-10-10T14:52:04.652Z,40.75
2023-10-10T14:54:32.327Z,39.80
2023-10-10T14:56:58.879Z,40.68
2023-10-10T14:59:26.812Z,40.67
2023-10-10T15:01:53.693Z,40.82
2023-10-10T15:04:22.541Z,41.28
2023-10-10T15:06:55.245Z,40.90
2023-10-10T15:09:24.994Z,40.43
2023-10-10T15:11:53.463Z,40.08
2023-10-10T15:14:20.677Z,40.27
2023-10-10T15:16:50.713Z,40.51
2023-10-10T15:19:17.527Z,40.74
2023-10-10T15:21:49.357Z,40.20
2023-10-10T15:24:16.232Z,39.98
2023-10-10T15:26:52.417Z,40.60
2023-10-10T15:29:22.103Z,40.64
2023-10-10T15:31:51.021Z,40.75
2023-10-10T15:34:17.398Z,40.66
2023-10-10T15:36:45.397Z,41.31
2023-10-10T15:39:12.614Z,41.48
2023-10-10T15:41:41.828Z,41.45
2023-10-10T15:44:09.273Z,40.30
2023-10-10T15:46:38.420Z,40.75
2023-10-10T15:49:25.309Z,40.97
2023-10-10T15:52:04.528Z,40.98
2023-10-10T15:54:34.626Z,41.02
2023-10-10T15:57:05.029Z,41.27
2023-10-10T15:59:31.496Z,41.30
2023-10-10T16:01:58.007Z,42.16
2023-10-10T16:04:27.287Z,42.25
2023-10-10T16:06:53.762Z,42.28
2023-10-10T16:09:21.581Z,42.34
2023-10-10T16:11:54.617Z,42.17
2023-10-10T16:14:21.657Z,42.79
2023-10-10T16:16:48.870Z,43.02
2023-10-10T16:19:22.393Z,43.53
2023-10-10T16:21:49.761Z,43.44
2023-10-10T16:24:16.198Z,43.37
2023-10-10T16:26:43.435Z,44.00
2023-10-10T16:29:09.992Z,44.32
2023-10-10T16:31:37.361Z,45.45
2023-10-10T16:34:04.531Z,45.50
2023-10-10T16:36:31.718Z,45.59
2023-10-10T16:38:58.387Z,46.72
2023-10-10T16:41:24.914Z,46.42
2023-10-10T16:44:00.755Z,47.17
2023-10-10T16:46:32.695Z,47.21
2023-10-10T16:48:59.499Z,47.54
2023-10-10T16:51:32.760Z,48.36
2023-10-10T16:53:59.535Z,48.13
2023-10-10T16:56:26.244Z,49.32
2023-10-10T16:58:52.935Z,50.29
2023-10-10T17:01:23.600Z,48.47
2023-10-10T17:03:55.260Z,46.51
2023-10-10T17:06:23.734Z,47.41
2023-10-10T17:08:54.028Z,48.06
2023-10-10T17:11:21.928Z,48.96
2023-10-10T17:13:48.550Z,49.06
2023-10-10T17:16:21.835Z,49.41
2023-10-10T17:18:50.700Z,49.92
2023-10-10T17:21:21.350Z,50.67
2023-10-10T17:23:49.644Z,50.55
2023-10-10T17:26:19.729Z,50.50
2023-10-10T17:28:46.406Z,50.01
2023-10-10T17:31:20.947Z,50.30
2023-10-10T17:33:48.238Z,49.77
2023-10-10T17:36:16.514Z,50.19
2023-10-10T17:38:44.837Z,50.34
2023-10-10T17:41:14.375Z,50.41
2023-10-10T17:43:44.217Z,50.79
2023-10-10T17:46:15.105Z,50.71
2023-10-10T17:48:43.229Z,49.33
2023-10-10T17:51:16.366Z,50.40
2023-10-10T17:53:43.572Z,50.10
2023-10-10T17:56:13.840Z,50.39
2023-10-10T17:58:41.397Z,49.79
2023-10-10T18:01:12.017Z,50.75
2023-10-10T18:03:42.801Z,49.94
2023-10-10T18:06:22.428Z,50.47
2023-10-10T18:08:49.430Z,49.39
2023-10-10T18:11:16.439Z,49.84
2023-10-10T18:13:44.444Z,50.31
2023-10-10T18:16:11.049Z,50.89
2023-10-10T18:18:39.006Z,50.08
2023-10-10T18:21:08.436Z,50.87
2023-10-10T18:23:39.077Z,50.49
2023-10-10T18:26:13.019Z,50.34
2023-10-10T18:28:40.658Z,50.84
2023-10-10T18:31:20.282Z,50.69
2023-10-10T18:33:48.036Z,51.01
2023-10-10T18:36:14.550Z,51.94
2023-10-10T18:38:41.227Z,52.15
2023-10-10T18:41:08.808Z,51.24
2023-10-10T18:43:35.368Z,52.57
2023-10-10T18:46:02.217Z,52.46
2023-10-10T18:48:34.117Z,52.13
2023-10-10T18:51:01.923Z,52.06
2023-10-10T18:53:28.577Z,51.99
2023-10-10T18:55:56.369Z,51.95
2023-10-10T18:58:27.291Z,51.77
2023-10-10T19:00:56.152Z,51.93
2023-10-10T19:03:23.528Z,52.67
2023-10-10T19:05:53.002Z,51.32
2023-10-10T19:08:20.422Z,52.09
2023-10-10T19:10:51.772Z,52.01
2023-10-10T19:13:19.652Z,52.32
2023-10-10T19:15:48.889Z,52.39
2023-10-10T19:18:17.028Z,52.27
2023-10-10T19:20:44.372Z,52.11
2023-10-10T19:23:11.048Z,52.73
2023-10-10T19:25:47.406Z,51.79
2023-10-10T19:28:18.502Z,51.86
2023-10-10T19:30:45.915Z,51.68
2023-10-10T19:33:15.514Z,50.98
2023-10-10T19:35:45.485Z,51.77
2023-10-10T19:38:12.872Z,51.96
2023-10-10T19:40:43.950Z,52.15
2023-10-10T19:43:11.300Z,52.99
2023-10-10T19:45:38.777Z,53.77
2023-10-10T19:48:08.648Z,53.91
2023-10-10T19:50:45.800Z,54.00
2023-10-10T19:53:16.612Z,53.41
2023-10-10T19:55:44.494Z,53.61
2023-10-10T19:58:12.787Z,54.14
2023-10-10T20:00:48.731Z,53.73
2023-10-10T20:03:18.974Z,53.20
2023-10-10T20:05:45.620Z,53.59
2023-10-10T20:08:15.210Z,53.91
2023-10-10T20:10:48.108Z,53.98
2023-10-10T20:13:14.783Z,53.93
2023-10-10T20:15:41.267Z,53.40
2023-10-10T20:18:16.060Z,53.51
2023-10-10T20:20:42.830Z,54.11
2023-10-10T20:23:10.648Z,54.64
2023-10-10T20:25:40.746Z,54.41
2023-10-10T20:28:08.752Z,53.28
2023-10-10T20:30:38.287Z,54.23
2023-10-10T20:33:06.230Z,53.31
2023-10-10T20:35:33.144Z,53.53
2023-10-10T20:38:07.173Z,53.85
2023-10-10T20:40:36.088Z,52.72
2023-10-10T20:43:10.086Z,52.74
2023-10-10T20:45:37.849Z,53.02
2023-10-10T20:48:10.265Z,52.88
2023-10-10T20:50:45.111Z,52.93
2023-10-10T20:53:12.902Z,52.51
2023-10-10T20:55:39.751Z,53.15
2023-10-10T20:58:06.234Z,53.34
2023-10-10T21:00:35.566Z,53.26
2023-10-10T21:03:07.227Z,53.16
2023-10-10T21:05:35.384Z,52.99
2023-10-10T21:08:03.338Z,52.31
2023-10-10T21:10:30.852Z,52.03
2023-10-10T21:12:57.547Z,53.04
2023-10-10T21:15:24.355Z,52.40
2023-10-10T21:17:55.380Z,52.14
2023-10-10T21:20:28.984Z,52.54
2023-10-10T21:22:59.983Z,53.00
2023-10-10T21:25:27.543Z,52.36
2023-10-10T21:27:57.936Z,52.79
2023-10-10T21:30:29.227Z,52.69
2023-10-10T21:32:57.058Z,53.10
2023-10-10T21:35:33.939Z,53.41
2023-10-10T21:38:00.419Z,53.16
2023-10-10T21:40:28.212Z,53.98
2023-10-10T21:42:56.835Z,53.55
2023-10-10T21:45:25.252Z,53.71
2023-10-10T21:47:58.441Z,52.60
2023-10-10T21:50:25.183Z,53.74
2023-10-10T21:52:51.920Z,53.06
2023-10-10T21:55:20.225Z,53.37
2023-10-10T21:57:56.248Z,52.86
2023-10-10T22:00:32.797Z,53.22
2023-10-10T22:03:05.370Z,52.90
2023-10-10T22:05:33.154Z,53.48
2023-10-10T22:07:59.894Z,53.86
2023-10-10T22:10:26.249Z,53.38
2023-10-10T22:12:56.893Z,53.61
2023-10-10T22:15:26.326Z,53.44
2023-10-10T22:17:56.002Z,53.25
2023-10-10T22:20:24.131Z,53.44
2023-10-10T22:22:51.341Z,52.61
2023-10-10T22:25:22.064Z,52.69
2023-10-10T22:27:49.677Z,51.03
2023-10-10T22:30:18.815Z,51.56
2023-10-10T22:32:46.948Z,52.63
2023-10-10T22:35:14.388Z,52.61
2023-10-10T22:37:41.260Z,53.03
2023-10-10T22:40:12.850Z,53.78
2023-10-10T22:42:39.486Z,52.97
2023-10-10T22:45:11.662Z,53.19
2023-10-10T22:47:39.173Z,52.03
2023-10-10T22:50:08.888Z,52.36
2023-10-10T22:52:38.738Z,52.72
2023-10-10T22:55:07.960Z,52.09
2023-10-10T22:57:35.297Z,51.43
2023-10-10T23:00:06.993Z,52.52
2023-10-10T23:02:33.675Z,52.50
2023-10-10T23:05:00.254Z,52.06
2023-10-10T23:07:27.500Z,53.40
2023-10-10T23:09:54.338Z,54.15
2023-10-10T23:12:23.713Z,54.00
2023-10-10T23:14:50.272Z,53.52
2023-10-10T23:17:17.025Z,54.36
2023-10-10T23:19:43.388Z,53.37
2023-10-10T23:22:09.825Z,54.27
2023-10-10T23:24:36.190Z,53.54
2023-10-10T23:27:02.627Z,53.96
2023-10-10T23:29:29.023Z,53.00
2023-10-10T23:31:55.400Z,53.57
2023-10-10T23:34:21.769Z,53.16
2023-10-10T23:36:48.127Z,52.83
2023-10-10T23:39:17.780Z,53.45
2023-10-10T23:41:47.911Z,52.61
2023-10-10T23:44:14.865Z,53.49
2023-10-10T23:46:47.101Z,53.44
2023-10-10T23:49:14.523Z,53.54
2023-10-10T23:51:41.041Z,53.44
2023-10-10T23:54:07.498Z,52.55
2023-10-10T23:56:36.863Z,53.46
2023-10-10T23:59:03.750Z,52.71
